sensor_id;sensor_type;location;lat;lon;timestamp;pressure;altitude;pressure_sealevel;temperature;humidity
13968;BME280;39536;52.198;9.920;2023-03-05T00:00:39;101019.06;;;1.91;100.00
13968;BME280;39536;52.198;9.920;2023-03-05T00:03:05;101014.88;;;1.96;100.00
13968;BME280;39536;52.198;9.920;2023-03-05T00:05:31;101010.59;;;2.00;100.00
13968;BME280;39536;52.198;9.920;2023-03-05T00:07:59;101022.50;;;1.90;100.00
13968;BME280;39536;52.198;9.920;2023-03-05T00:10:26;101014.88;;;1.96;100.00
13968;BME280;39536;52.198;9.920;2023-03-05T00:12:52;101013.97;;;1.94;100.00
13968;BME280;39536;52.198;9.920;2023-03-05T00:15:20;101005.41;;;1.94;100.00
13968;BME280;39536;52.198;9.920;2023-03-05T00:17:46;101011.38;;;1.91;100.00
13968;BME280;39536;52.198;9.920;2023-03-05T00:20:13;100993.38;;;1.91;100.00
13968;BME280;39536;52.198;9.920;2023-03-05T00:22:40;101001.09;;;1.91;100.00
13968;BME280;39536;52.198;9.920;2023-03-05T00:25:07;100997.69;;;1.95;100.00
13968;BME280;39536;52.198;9.920;2023-03-05T00:27:33;100989.16;;;1.98;100.00
13968;BME280;39536;52.198;9.920;2023-03-05T00:30:00;100991.75;;;1.98;100.00
13968;BME280;39536;52.198;9.920;2023-03-05T00:32:27;100993.44;;;1.97;100.00
13968;BME280;39536;52.198;9.920;2023-03-05T00:34:54;100990.88;;;1.99;100.00
13968;BME280;39536;52.198;9.920;2023-03-05T00:37:20;100990.00;;;1.95;100.00
13968;BME280;39536;52.198;9.920;2023-03-05T00:39:47;100988.25;;;1.91;100.00
13968;BME280;39536;52.198;9.920;2023-03-05T00:42:13;100987.38;;;1.89;100.00
13968;BME280;39536;52.198;9.920;2023-03-05T00:44:40;100990.81;;;1.93;100.00
13968;BME280;39536;52.198;9.920;2023-03-05T00:47:06;100988.19;;;1.85;100.00
13968;BME280;39536;52.198;9.920;2023-03-05T00:49:35;100977.13;;;1.92;100.00
13968;BME280;39536;52.198;9.920;2023-03-05T00:52:01;100971.19;;;1.96;100.00
13968;BME280;39536;52.198;9.920;2023-03-05T00:54:28;100966.03;;;1.99;100.00
13968;BME280;39536;52.198;9.920;2023-03-05T00:56:54;100966.06;;;2.02;100.00
13968;BME280;39536;52.198;9.920;2023-03-05T00:59:21;100954.94;;;2.00;100.00
13968;BME280;39536;52.198;9.920;2023-03-05T01:01:47;100965.19;;;1.97;100.00
13968;BME280;39536;52.198;9.920;2023-03-05T01:04:14;100954.09;;;2.01;100.00
13968;BME280;39536;52.198;9.920;2023-03-05T01:06:42;100952.38;;;2.02;100.00
13968;BME280;39536;52.198;9.920;2023-03-05T01:09:10;100942.09;;;2.00;100.00
13968;BME280;39536;52.198;9.920;2023-03-05T01:11:36;100943.88;;;2.06;100.00
13968;BME280;39536;52.198;9.920;2023-03-05T01:14:03;100940.41;;;2.04;100.00
13968;BME280;39536;52.198;9.920;2023-03-05T01:16:30;100929.31;;;2.06;100.00
13968;BME280;39536;52.198;9.920;2023-03-05T01:18:56;100927.53;;;2.01;100.00
13968;BME280;39536;52.198;9.920;2023-03-05T01:21:23;100918.97;;;2.00;100.00
13968;BME280;39536;52.198;9.920;2023-03-05T01:23:51;100917.25;;;2.02;100.00
13968;BME280;39536;52.198;9.920;2023-03-05T01:26:17;100909.56;;;2.01;100.00
13968;BME280;39536;52.198;9.920;2023-03-05T01:28:44;100913.78;;;1.96;100.00
13968;BME280;39536;52.198;9.920;2023-03-05T01:33:44;100899.25;;;1.96;100.00
13968;BME280;39536;52.198;9.920;2023-03-05T01:36:12;100890.78;;;2.08;100.00
13968;BME280;39536;52.198;9.920;2023-03-05T01:38:41;100889.06;;;2.07;100.00
13968;BME280;39536;52.198;9.920;2023-03-05T01:41:10;100884.78;;;2.06;100.00
13968;BME280;39536;52.198;9.920;2023-03-05T01:43:38;100882.19;;;2.03;100.00
13968;BME280;39536;52.198;9.920;2023-03-05T01:46:30;100871.94;;;2.06;100.00
13968;BME280;39536;52.198;9.920;2023-03-05T01:49:02;100877.06;;;2.07;100.00
13968;BME280;39536;52.198;9.920;2023-03-05T01:51:32;100869.31;;;2.01;100.00
13968;BME280;39536;52.198;9.920;2023-03-05T01:54:00;100872.72;;;1.97;100.00
13968;BME280;39536;52.198;9.920;2023-03-05T01:56:29;100871.84;;;1.98;100.00
13968;BME280;39536;52.198;9.920;2023-03-05T01:58:56;100871.84;;;1.97;100.00
13968;BME280;39536;52.198;9.920;2023-03-05T02:01:32;100864.19;;;2.00;100.00
13968;BME280;39536;52.198;9.920;2023-03-05T02:03:59;100861.63;;;2.03;100.00
13968;BME280;39536;52.198;9.920;2023-03-05T02:06:27;100848.78;;;2.03;100.00
13968;BME280;39536;52.198;9.920;2023-03-05T02:08:54;100857.31;;;2.02;100.00
13968;BME280;39536;52.198;9.920;2023-03-05T02:11:21;100856.50;;;2.07;100.00
13968;BME280;39536;52.198;9.920;2023-03-05T02:13:49;100853.09;;;2.08;100.00
13968;BME280;39536;52.198;9.920;2023-03-05T02:16:16;100858.19;;;2.04;100.00
13968;BME280;39536;52.198;9.920;2023-03-05T02:18:42;100846.22;;;2.07;100.00
13968;BME280;39536;52.198;9.920;2023-03-05T02:21:11;100838.53;;;2.06;100.00
13968;BME280;39536;52.198;9.920;2023-03-05T02:23:38;100844.50;;;2.03;100.00
13968;BME280;39536;52.198;9.920;2023-03-05T02:26:06;100840.19;;;1.96;100.00
13968;BME280;39536;52.198;9.920;2023-03-05T02:28:37;100847.94;;;2.04;100.00
13968;BME280;39536;52.198;9.920;2023-03-05T02:31:08;100840.22;;;2.05;100.00
13968;BME280;39536;52.198;9.920;2023-03-05T02:33:35;100830.84;;;2.11;100.00
13968;BME280;39536;52.198;9.920;2023-03-05T02:36:02;100833.34;;;2.01;100.00
13968;BME280;39536;52.198;9.920;2023-03-05T02:38:30;100824.78;;;2.05;100.00
13968;BME280;39536;52.198;9.920;2023-03-05T02:40:57;100826.53;;;2.06;100.00
13968;BME280;39536;52.198;9.920;2023-03-05T02:43:24;100827.38;;;2.08;100.00
13968;BME280;39536;52.198;9.920;2023-03-05T02:45:50;100809.41;;;2.07;100.00
13968;BME280;39536;52.198;9.920;2023-03-05T02:48:17;100817.13;;;2.12;100.00
13968;BME280;39536;52.198;9.920;2023-03-05T02:50:45;100818.84;;;2.11;100.00
13968;BME280;39536;52.198;9.920;2023-03-05T02:53:12;100816.25;;;2.08;100.00
13968;BME280;39536;52.198;9.920;2023-03-05T02:55:40;100813.66;;;2.03;100.00
13968;BME280;39536;52.198;9.920;2023-03-05T02:58:06;100815.41;;;2.11;100.00
13968;BME280;39536;52.198;9.920;2023-03-05T03:00:33;100806.84;;;2.08;100.00
13968;BME280;39536;52.198;9.920;2023-03-05T03:03:00;100809.44;;;2.12;100.00
13968;BME280;39536;52.198;9.920;2023-03-05T03:05:26;100808.56;;;2.08;100.00
13968;BME280;39536;52.198;9.920;2023-03-05T03:07:53;100806.81;;;2.04;100.00
13968;BME280;39536;52.198;9.920;2023-03-05T03:10:19;100791.41;;;2.08;100.00
13968;BME280;39536;52.198;9.920;2023-03-05T03:12:47;100800.84;;;2.08;100.00
13968;BME280;39536;52.198;9.920;2023-03-05T03:15:15;100804.25;;;2.05;100.00
13968;BME280;39536;52.198;9.920;2023-03-05T03:17:43;100791.34;;;1.99;100.00
13968;BME280;39536;52.198;9.920;2023-03-05T03:20:12;100791.41;;;2.08;100.00
13968;BME280;39536;52.198;9.920;2023-03-05T03:22:39;100779.47;;;2.12;100.00
13968;BME280;39536;52.198;9.920;2023-03-05T03:25:07;100788.00;;;2.08;100.00
13968;BME280;39536;52.198;9.920;2023-03-05T03:27:34;100777.75;;;2.10;100.00
13968;BME280;39536;52.198;9.920;2023-03-05T03:30:03;100781.16;;;2.08;100.00
13968;BME280;39536;52.198;9.920;2023-03-05T03:32:30;100780.31;;;2.14;100.00
13968;BME280;39536;52.198;9.920;2023-03-05T03:34:57;100776.03;;;2.12;100.00
13968;BME280;39536;52.198;9.920;2023-03-05T03:37:24;100776.94;;;2.15;100.00
13968;BME280;39536;52.198;9.920;2023-03-05T03:39:51;100774.31;;;2.09;100.00
13968;BME280;39536;52.198;9.920;2023-03-05T03:42:17;100776.00;;;2.07;100.00
13968;BME280;39536;52.198;9.920;2023-03-05T03:44:44;100762.16;;;1.83;100.00
13968;BME280;39536;52.198;9.920;2023-03-05T03:47:12;100763.06;;;1.90;100.00
13968;BME280;39536;52.198;9.920;2023-03-05T03:49:39;100751.91;;;1.88;100.00
13968;BME280;39536;52.198;9.920;2023-03-05T03:52:06;100764.69;;;1.80;100.00
13968;BME280;39536;52.198;9.920;2023-03-05T03:54:33;100759.50;;;1.70;100.00
13968;BME280;39536;52.198;9.920;2023-03-05T03:57:00;100756.19;;;1.84;100.00
13968;BME280;39536;52.198;9.920;2023-03-05T03:59:27;100758.72;;;1.81;100.00
13968;BME280;39536;52.198;9.920;2023-03-05T04:01:53;100754.41;;;1.77;100.00
13968;BME280;39536;52.198;9.920;2023-03-05T04:04:21;100752.63;;;1.67;100.00
13968;BME280;39536;52.198;9.920;2023-03-05T04:06:50;100752.66;;;1.73;100.00
13968;BME280;39536;52.198;9.920;2023-03-05T04:09:17;100754.38;;;1.70;100.00
13968;BME280;39536;52.198;9.920;2023-03-05T04:11:43;100751.81;;;1.73;100.00
13968;BME280;39536;52.198;9.920;2023-03-05T04:14:10;100756.13;;;1.75;100.00
13968;BME280;39536;52.198;9.920;2023-03-05T04:16:37;100749.25;;;1.77;100.00
13968;BME280;39536;52.198;9.920;2023-03-05T04:19:04;100745.84;;;1.75;100.00
13968;BME280;39536;52.198;9.920;2023-03-05T04:21:32;100743.22;;;1.71;100.00
13968;BME280;39536;52.198;9.920;2023-03-05T04:23:58;100732.13;;;1.69;100.00
13968;BME280;39536;52.198;9.920;2023-03-05T04:26:25;100734.69;;;1.72;100.00
13968;BME280;39536;52.198;9.920;2023-03-05T04:28:51;100729.59;;;1.75;100.00
13968;BME280;39536;52.198;9.920;2023-03-05T04:31:18;100730.41;;;1.74;100.00
13968;BME280;39536;52.198;9.920;2023-03-05T04:33:45;100719.28;;;1.72;100.00
13968;BME280;39536;52.198;9.920;2023-03-05T04:36:12;100720.16;;;1.77;100.00
13968;BME280;39536;52.198;9.920;2023-03-05T04:38:40;100734.75;;;1.78;100.00
13968;BME280;39536;52.198;9.920;2023-03-05T04:41:07;100716.78;;;1.81;100.00
13968;BME280;39536;52.198;9.920;2023-03-05T04:43:33;100728.75;;;1.79;100.00
13968;BME280;39536;52.198;9.920;2023-03-05T04:46:00;100715.91;;;1.79;100.00
13968;BME280;39536;52.198;9.920;2023-03-05T04:48:26;100721.91;;;1.81;100.00
13968;BME280;39536;52.198;9.920;2023-03-05T04:50:53;100719.38;;;1.89;100.00
13968;BME280;39536;52.198;9.920;2023-03-05T04:53:22;100719.38;;;1.89;100.00
13968;BME280;39536;52.198;9.920;2023-03-05T04:55:52;100723.66;;;1.88;100.00
13968;BME280;39536;52.198;9.920;2023-03-05T04:58:19;100716.81;;;1.87;100.00
13968;BME280;39536;52.198;9.920;2023-03-05T05:00:46;100712.53;;;1.88;100.00
13968;BME280;39536;52.198;9.920;2023-03-05T05:03:13;100709.13;;;1.87;100.00
13968;BME280;39536;52.198;9.920;2023-03-05T05:05:39;100717.66;;;1.89;100.00
13968;BME280;39536;52.198;9.920;2023-03-05T05:08:06;100711.69;;;1.89;100.00
13968;BME280;39536;52.198;9.920;2023-03-05T05:10:33;100696.25;;;1.85;100.00
13968;BME280;39536;52.198;9.920;2023-03-05T05:13:01;100694.53;;;1.86;100.00
13968;BME280;39536;52.198;9.920;2023-03-05T05:15:27;100707.41;;;1.88;100.00
13968;BME280;39536;52.198;9.920;2023-03-05T05:17:54;100702.25;;;1.84;100.00
13968;BME280;39536;52.198;9.920;2023-03-05T05:20:21;100697.97;;;1.88;100.00
13968;BME280;39536;52.198;9.920;2023-03-05T05:22:47;100694.56;;;1.89;100.00
13968;BME280;39536;52.198;9.920;2023-03-05T05:25:14;100685.13;;;1.87;100.00
13968;BME280;39536;52.198;9.920;2023-03-05T05:27:41;100704.00;;;1.90;100.00
13968;BME280;39536;52.198;9.920;2023-03-05T05:30:10;100693.72;;;1.87;100.00
13968;BME280;39536;52.198;9.920;2023-03-05T05:32:37;100686.84;;;1.88;100.00
13968;BME280;39536;52.198;9.920;2023-03-05T05:35:04;100689.41;;;1.89;100.00
13968;BME280;39536;52.198;9.920;2023-03-05T05:37:31;100686.88;;;1.91;100.00
13968;BME280;39536;52.198;9.920;2023-03-05T05:39:57;100694.56;;;1.88;100.00
13968;BME280;39536;52.198;9.920;2023-03-05T05:42:24;100684.28;;;1.92;100.00
13968;BME280;39536;52.198;9.920;2023-03-05T05:44:51;100676.59;;;1.95;100.00
13968;BME280;39536;52.198;9.920;2023-03-05T05:47:21;100687.72;;;1.88;100.00
13968;BME280;39536;52.198;9.920;2023-03-05T05:49:48;100688.59;;;1.92;100.00
13968;BME280;39536;52.198;9.920;2023-03-05T05:52:14;100680.03;;;1.91;100.00
13968;BME280;39536;52.198;9.920;2023-03-05T05:54:41;100671.47;;;1.94;100.00
13968;BME280;39536;52.198;9.920;2023-03-05T05:57:08;100674.91;;;1.97;100.00
13968;BME280;39536;52.198;9.920;2023-03-05T05:59:34;100672.31;;;1.91;100.00
13968;BME280;39536;52.198;9.920;2023-03-05T06:02:01;100674.06;;;2.00;100.00
13968;BME280;39536;52.198;9.920;2023-03-05T06:04:30;100671.47;;;1.92;100.00
13968;BME280;39536;52.198;9.920;2023-03-05T06:06:57;100668.06;;;1.96;100.00
13968;BME280;39536;52.198;9.920;2023-03-05T06:09:24;100669.75;;;1.93;100.00
13968;BME280;39536;52.198;9.920;2023-03-05T06:11:50;100670.63;;;1.93;100.00
13968;BME280;39536;52.198;9.920;2023-03-05T06:14:17;100658.59;;;1.89;100.00
13968;BME280;39536;52.198;9.920;2023-03-05T06:16:44;100662.03;;;1.93;100.00
13968;BME280;39536;52.198;9.920;2023-03-05T06:19:10;100663.75;;;1.95;100.00
13968;BME280;39536;52.198;9.920;2023-03-05T06:21:39;100662.06;;;1.97;100.00
13968;BME280;39536;52.198;9.920;2023-03-05T06:24:06;100654.28;;;1.87;100.00
13968;BME280;39536;52.198;9.920;2023-03-05T06:26:32;100656.06;;;1.91;100.00
13968;BME280;39536;52.198;9.920;2023-03-05T06:28:59;100646.63;;;1.88;100.00
13968;BME280;39536;52.198;9.920;2023-03-05T06:31:27;100652.63;;;1.95;100.00
13968;BME280;39536;52.198;9.920;2023-03-05T06:33:56;100658.63;;;1.98;100.00
13968;BME280;39536;52.198;9.920;2023-03-05T06:36:24;100655.22;;;1.96;100.00
13968;BME280;39536;52.198;9.920;2023-03-05T06:38:52;100650.97;;;2.00;100.00
13968;BME280;39536;52.198;9.920;2023-03-05T06:41:21;100659.50;;;2.00;100.00
13968;BME280;39536;52.198;9.920;2023-03-05T06:43:48;100662.09;;;2.03;100.00
13968;BME280;39536;52.198;9.920;2023-03-05T06:46:17;100650.97;;;2.06;100.00
13968;BME280;39536;52.198;9.920;2023-03-05T06:48:44;100657.81;;;2.08;100.00
13968;BME280;39536;52.198;9.920;2023-03-05T06:51:12;100659.56;;;2.10;100.00
13968;BME280;39536;52.198;9.920;2023-03-05T06:53:40;100655.22;;;2.05;100.00
13968;BME280;39536;52.198;9.920;2023-03-05T06:56:08;100662.06;;;2.02;100.00
13968;BME280;39536;52.198;9.920;2023-03-05T06:58:35;100662.13;;;2.06;100.00
13968;BME280;39536;52.198;9.920;2023-03-05T07:01:03;100660.41;;;2.12;100.00
13968;BME280;39536;52.198;9.920;2023-03-05T07:03:30;100668.09;;;2.08;100.00
13968;BME280;39536;52.198;9.920;2023-03-05T07:05:57;100668.97;;;2.07;100.00
13968;BME280;39536;52.198;9.920;2023-03-05T07:08:23;100655.22;;;2.01;100.00
13968;BME280;39536;52.198;9.920;2023-03-05T07:10:50;100652.66;;;2.02;100.00
13968;BME280;39536;52.198;9.920;2023-03-05T07:13:18;100657.78;;;1.93;100.00
13968;BME280;39536;52.198;9.920;2023-03-05T07:15:44;100646.66;;;1.97;100.00
13968;BME280;39536;52.198;9.920;2023-03-05T07:18:11;100652.69;;;2.04;100.00
13968;BME280;39536;52.198;9.920;2023-03-05T07:20:37;100655.22;;;2.05;100.00
13968;BME280;39536;52.198;9.920;2023-03-05T07:23:04;100641.53;;;2.02;100.00
13968;BME280;39536;52.198;9.920;2023-03-05T07:25:31;100654.38;;;2.00;100.00
13968;BME280;39536;52.198;9.920;2023-03-05T07:27:58;100645.84;;;2.07;100.00
13968;BME280;39536;52.198;9.920;2023-03-05T07:30:26;100650.09;;;2.08;100.00
13968;BME280;39536;52.198;9.920;2023-03-05T07:32:53;100646.72;;;2.10;100.00
13968;BME280;39536;52.198;9.920;2023-03-05T07:35:19;100648.47;;;2.21;100.00
13968;BME280;39536;52.198;9.920;2023-03-05T07:37:46;100640.75;;;2.21;100.00
13968;BME280;39536;52.198;9.920;2023-03-05T07:40:13;100641.63;;;2.29;100.00
13968;BME280;39536;52.198;9.920;2023-03-05T07:42:39;100639.91;;;2.27;100.00
13968;BME280;39536;52.198;9.920;2023-03-05T07:45:07;100638.22;;;2.27;100.00
13968;BME280;39536;52.198;9.920;2023-03-05T07:47:35;100644.19;;;2.22;100.00
13968;BME280;39536;52.198;9.920;2023-03-05T07:50:03;100642.47;;;2.25;100.00
13968;BME280;39536;52.198;9.920;2023-03-05T07:52:29;100645.91;;;2.27;100.00
13968;BME280;39536;52.198;9.920;2023-03-05T07:54:56;100634.78;;;2.35;100.00
13968;BME280;39536;52.198;9.920;2023-03-05T07:57:22;100642.47;;;2.27;100.00
13968;BME280;39536;52.198;9.920;2023-03-05T07:59:49;100634.78;;;2.35;100.00
13968;BME280;39536;52.198;9.920;2023-03-05T08:02:16;100636.50;;;2.34;100.00
13968;BME280;39536;52.198;9.920;2023-03-05T08:04:45;100638.19;;;2.29;100.00
13968;BME280;39536;52.198;9.920;2023-03-05T08:07:13;100639.06;;;2.31;100.00
13968;BME280;39536;52.198;9.920;2023-03-05T08:09:39;100648.47;;;2.21;100.00
13968;BME280;39536;52.198;9.920;2023-03-05T08:12:08;100632.19;;;2.27;100.00
13968;BME280;39536;52.198;9.920;2023-03-05T08:14:35;100636.50;;;2.25;100.00
13968;BME280;39536;52.198;9.920;2023-03-05T08:17:03;100628.78;;;2.33;100.00
13968;BME280;39536;52.198;9.920;2023-03-05T08:19:31;100618.50;;;2.31;100.00
13968;BME280;39536;52.198;9.920;2023-03-05T08:21:59;100611.66;;;2.38;100.00
13968;BME280;39536;52.198;9.920;2023-03-05T08:24:25;100618.53;;;2.37;100.00
13968;BME280;39536;52.198;9.920;2023-03-05T08:26:54;100602.25;;;2.38;100.00
13968;BME280;39536;52.198;9.920;2023-03-05T08:29:21;100617.66;;;2.49;100.00
13968;BME280;39536;52.198;9.920;2023-03-05T08:31:48;100614.25;;;2.48;100.00
13968;BME280;39536;52.198;9.920;2023-03-05T08:34:15;100614.25;;;2.47;100.00
13968;BME280;39536;52.198;9.920;2023-03-05T08:36:41;100618.53;;;2.45;100.00
13968;BME280;39536;52.198;9.920;2023-03-05T08:39:10;100614.22;;;2.42;100.00
13968;BME280;39536;52.198;9.920;2023-03-05T08:41:36;100621.97;;;2.51;100.00
13968;BME280;39536;52.198;9.920;2023-03-05T08:44:03;100615.97;;;2.40;100.00
13968;BME280;39536;52.198;9.920;2023-03-05T08:46:30;100627.94;;;2.46;100.00
13968;BME280;39536;52.198;9.920;2023-03-05T08:48:57;100616.81;;;2.44;100.00
13968;BME280;39536;52.198;9.920;2023-03-05T08:51:24;100632.25;;;2.53;100.00
13968;BME280;39536;52.198;9.920;2023-03-05T08:53:52;100613.41;;;2.56;100.00
13968;BME280;39536;52.198;9.920;2023-03-05T08:56:20;100616.00;;;2.63;100.00
13968;BME280;39536;52.198;9.920;2023-03-05T08:58:47;100606.56;;;2.67;100.00
13968;BME280;39536;52.198;9.920;2023-03-05T09:01:14;100614.28;;;2.56;100.00
13968;BME280;39536;52.198;9.920;2023-03-05T09:03:40;100627.13;;;2.61;100.00
13968;BME280;39536;52.198;9.920;2023-03-05T09:06:08;100608.28;;;2.62;100.00
13968;BME280;39536;52.198;9.920;2023-03-05T09:08:36;100598.84;;;2.62;100.00
13968;BME280;39536;52.198;9.920;2023-03-05T09:11:04;100607.44;;;2.69;100.00
13968;BME280;39536;52.198;9.920;2023-03-05T09:13:33;100603.13;;;2.74;100.00
13968;BME280;39536;52.198;9.920;2023-03-05T09:16:01;100597.97;;;2.74;100.00
13968;BME280;39536;52.198;9.920;2023-03-05T09:18:28;100585.13;;;2.75;100.00
13968;BME280;39536;52.198;9.920;2023-03-05T09:20:55;100591.13;;;2.79;100.00
13968;BME280;39536;52.198;9.920;2023-03-05T09:23:22;100592.84;;;2.75;100.00
13968;BME280;39536;52.198;9.920;2023-03-05T09:25:49;100579.13;;;2.73;100.00
13968;BME280;39536;52.198;9.920;2023-03-05T09:28:16;100579.13;;;2.76;100.00
13968;BME280;39536;52.198;9.920;2023-03-05T09:30:44;100586.00;;;2.82;100.00
13968;BME280;39536;52.198;9.920;2023-03-05T09:33:11;100590.25;;;2.83;100.00
13968;BME280;39536;52.198;9.920;2023-03-05T09:35:37;100592.00;;;2.78;100.00
13968;BME280;39536;52.198;9.920;2023-03-05T09:38:04;100585.13;;;2.82;100.00
13968;BME280;39536;52.198;9.920;2023-03-05T09:40:40;100586.00;;;2.93;100.00
13968;BME280;39536;52.198;9.920;2023-03-05T09:43:18;100582.56;;;2.82;100.00
13968;BME280;39536;52.198;9.920;2023-03-05T09:46:03;100575.72;;;2.90;100.00
13968;BME280;39536;52.198;9.920;2023-03-05T09:48:44;100610.00;;;2.95;100.00
13968;BME280;39536;52.198;9.920;2023-03-05T09:51:19;100613.41;;;2.80;100.00
13968;BME280;39536;52.198;9.920;2023-03-05T09:53:49;100576.53;;;2.55;100.00
13968;BME280;39536;52.198;9.920;2023-03-05T09:56:22;100603.03;;;2.17;100.00
13968;BME280;39536;52.198;9.920;2023-03-05T09:58:51;100614.16;;;2.12;100.00
13968;BME280;39536;52.198;9.920;2023-03-05T10:01:22;100594.53;;;2.27;100.00
13968;BME280;39536;52.198;9.920;2023-03-05T10:03:55;100585.97;;;2.45;100.00
13968;BME280;39536;52.198;9.920;2023-03-05T10:06:25;100576.56;;;2.67;100.00
13968;BME280;39536;52.198;9.920;2023-03-05T10:08:56;100575.69;;;2.88;100.00
13968;BME280;39536;52.198;9.920;2023-03-05T10:11:33;100573.97;;;2.95;100.00
13968;BME280;39536;52.198;9.920;2023-03-05T10:14:02;100572.25;;;3.01;100.00
13968;BME280;39536;52.198;9.920;2023-03-05T10:16:59;100563.69;;;3.03;100.00
13968;BME280;39536;52.198;9.920;2023-03-05T10:19:44;100569.69;;;3.12;100.00
13968;BME280;39536;52.198;9.920;2023-03-05T10:22:19;100571.31;;;3.30;100.00
13968;BME280;39536;52.198;9.920;2023-03-05T10:24:59;100571.31;;;3.33;100.00
13968;BME280;39536;52.198;9.920;2023-03-05T10:27:38;100572.25;;;3.09;100.00
13968;BME280;39536;52.198;9.920;2023-03-05T10:30:18;100572.25;;;3.01;100.00
13968;BME280;39536;52.198;9.920;2023-03-05T10:32:53;100573.09;;;3.16;100.00
13968;BME280;39536;52.198;9.920;2023-03-05T10:35:39;100558.53;;;3.09;100.00
13968;BME280;39536;52.198;9.920;2023-03-05T10:38:39;100560.19;;;3.20;100.00
13968;BME280;39536;52.198;9.920;2023-03-05T10:41:16;100556.78;;;3.20;100.00
13968;BME280;39536;52.198;9.920;2023-03-05T10:43:51;100557.63;;;3.31;100.00
13968;BME280;39536;52.198;9.920;2023-03-05T10:46:22;100554.16;;;3.41;100.00
13968;BME280;39536;52.198;9.920;2023-03-05T10:48:54;100545.50;;;3.65;100.00
13968;BME280;39536;52.198;9.920;2023-03-05T10:51:27;100552.31;;;3.80;100.00
13968;BME280;39536;52.198;9.920;2023-03-05T10:54:01;100541.97;;;3.85;100.00
13968;BME280;39536;52.198;9.920;2023-03-05T10:56:31;100540.25;;;3.82;100.00
13968;BME280;39536;52.198;9.920;2023-03-05T10:58:57;100541.94;;;3.91;100.00
13968;BME280;39536;52.198;9.920;2023-03-05T11:01:25;100522.09;;;4.04;100.00
13968;BME280;39536;52.198;9.920;2023-03-05T11:03:56;100520.34;;;4.09;100.00
13968;BME280;39536;52.198;9.920;2023-03-05T11:06:32;100521.19;;;4.11;100.00
13968;BME280;39536;52.198;9.920;2023-03-05T11:09:24;100509.09;;;4.21;100.00
13968;BME280;39536;52.198;9.920;2023-03-05T11:12:11;100510.78;;;4.23;100.00
13968;BME280;39536;52.198;9.920;2023-03-05T11:14:39;100513.44;;;4.11;100.00
13968;BME280;39536;52.198;9.920;2023-03-05T11:17:25;100503.22;;;3.96;100.00
13968;BME280;39536;52.198;9.920;2023-03-05T11:19:54;100513.53;;;3.96;100.00
13968;BME280;39536;52.198;9.920;2023-03-05T11:22:22;100506.84;;;3.68;100.00
13968;BME280;39536;52.198;9.920;2023-03-05T11:25:12;100509.41;;;3.67;100.00
13968;BME280;39536;52.198;9.920;2023-03-05T11:27:43;100512.09;;;3.47;100.00
13968;BME280;39536;52.198;9.920;2023-03-05T11:30:19;100500.91;;;3.45;100.00
13968;BME280;39536;52.198;9.920;2023-03-05T11:32:46;100490.59;;;3.48;100.00
13968;BME280;39536;52.198;9.920;2023-03-05T11:35:29;100497.50;;;3.43;100.00
13968;BME280;39536;52.198;9.920;2023-03-05T11:37:59;100494.06;;;3.39;100.00
13968;BME280;39536;52.198;9.920;2023-03-05T11:40:29;100486.34;;;3.44;100.00
13968;BME280;39536;52.198;9.920;2023-03-05T11:42:58;100475.16;;;3.48;100.00
13968;BME280;39536;52.198;9.920;2023-03-05T11:45:28;100478.59;;;3.47;100.00
13968;BME280;39536;52.198;9.920;2023-03-05T11:47:57;100464.84;;;3.54;100.00
13968;BME280;39536;52.198;9.920;2023-03-05T11:50:30;100460.63;;;3.36;100.00
13968;BME280;39536;52.198;9.920;2023-03-05T11:52:59;100472.69;;;3.23;100.00
13968;BME280;39536;52.198;9.920;2023-03-05T11:55:32;100464.94;;;3.34;100.00
13968;BME280;39536;52.198;9.920;2023-03-05T11:58:16;100470.06;;;3.37;100.00
13968;BME280;39536;52.198;9.920;2023-03-05T12:00:47;100469.28;;;3.24;100.00
13968;BME280;39536;52.198;9.920;2023-03-05T12:03:16;100464.06;;;3.37;100.00
13968;BME280;39536;52.198;9.920;2023-03-05T12:05:47;100467.47;;;3.40;100.00
13968;BME280;39536;52.198;9.920;2023-03-05T12:08:18;100457.16;;;3.50;100.00
13968;BME280;39536;52.198;9.920;2023-03-05T12:10:49;100452.81;;;3.55;100.00
13968;BME280;39536;52.198;9.920;2023-03-05T12:13:22;100449.31;;;3.71;100.00
13968;BME280;39536;52.198;9.920;2023-03-05T12:16:10;100456.25;;;3.55;100.00
13968;BME280;39536;52.198;9.920;2023-03-05T12:18:59;100420.19;;;3.57;100.00
13968;BME280;39536;52.198;9.920;2023-03-05T12:21:32;100429.59;;;3.61;100.00
13968;BME280;39536;52.198;9.920;2023-03-05T12:24:02;100419.16;;;3.82;100.00
13968;BME280;39536;52.198;9.920;2023-03-05T12:26:55;100424.25;;;3.93;100.00
13968;BME280;39536;52.198;9.920;2023-03-05T12:29:38;100397.34;;;4.23;100.00
13968;BME280;39536;52.198;9.920;2023-03-05T12:35:36;100403.38;;;4.24;100.00
13968;BME280;39536;52.198;9.920;2023-03-05T12:38:29;100397.41;;;4.19;100.00
13968;BME280;39536;52.198;9.920;2023-03-05T12:41:31;100408.72;;;4.02;100.00
13968;BME280;39536;52.198;9.920;2023-03-05T12:44:19;100395.91;;;3.91;100.00
13968;BME280;39536;52.198;9.920;2023-03-05T12:47:17;100397.59;;;3.94;100.00
13968;BME280;39536;52.198;9.920;2023-03-05T12:49:48;100388.91;;;4.07;100.00
13968;BME280;39536;52.198;9.920;2023-03-05T12:52:24;100382.78;;;4.19;100.00
13968;BME280;39536;52.198;9.920;2023-03-05T12:55:13;100375.81;;;4.30;100.00
13968;BME280;39536;52.198;9.920;2023-03-05T12:57:42;100373.88;;;4.52;100.00
13968;BME280;39536;52.198;9.920;2023-03-05T13:00:14;100365.34;;;4.46;100.00
13968;BME280;39536;52.198;9.920;2023-03-05T13:02:50;100357.38;;;4.64;100.00
13968;BME280;39536;52.198;9.920;2023-03-05T13:05:23;100347.03;;;4.67;100.00
13968;BME280;39536;52.198;9.920;2023-03-05T13:07:51;100359.97;;;4.66;100.00